Time;durP1;ratioP1;P1;durP2;ratioP2;P2;SDS_P1;SDS_P2;PMS_P1;PMS_P2;Temp;Humidity;BMP_temperature;BMP_pressure;BME280_temperature;BME280_humidity;BME280_pressure;Samples;Min_cycle;Max_cycle;Signal;HPM_P1;HPM_P2
2021/04/13 00:01:30;;;;;;;11.70;8.75;;;;;;;;;;5094450;28;19951;-65
2021/04/13 00:03:56;;;;;;;10.27;8.13;;;;;;;;;;5094435;28;20382;-64
2021/04/13 00:06:31;;;;;;;12.55;9.43;;;;;;;;;;5098605;28;20032;-65
2021/04/13 00:09:07;;;;;;;13.23;8.70;;;;;;;;;;5113630;28;20023;-65
2021/04/13 00:11:33;;;;;;;14.32;10.32;;;;;;;;;;5099701;28;20417;-66
2021/04/13 00:14:00;;;;;;;13.32;9.55;;;;;;;;;;5094161;28;20020;-66
2021/04/13 00:16:29;;;;;;;12.15;9.10;;;;;;;;;;5111635;28;20028;-66
2021/04/13 00:18:55;;;;;;;11.65;8.93;;;;;;;;;;5113670;28;20107;-66
2021/04/13 00:21:22;;;;;;;14.48;9.27;;;;;;;;;;5097665;28;20406;-64
2021/04/13 00:23:48;;;;;;;12.90;8.68;;;;;;;;;;5104914;28;20132;-64
2021/04/13 00:26:25;;;;;;;11.75;9.07;;;;;;;;;;5114443;28;20094;-66
2021/04/13 00:28:52;;;;;;;10.98;8.75;;;;;;;;;;5103063;28;20024;-65
2021/04/13 00:31:39;;;;;;;11.68;9.40;;;;;;;;;;5093932;28;20243;-64
2021/04/13 00:34:28;;;;;;;11.95;8.75;;;;;;;;;;5094006;28;20020;-65
2021/04/13 00:36:56;;;;;;;12.50;8.60;;;;;;;;;;5093877;28;20104;-65
2021/04/13 00:39:26;;;;;;;13.63;9.10;;;;;;;;;;5107717;28;20023;-66
2021/04/13 00:41:58;;;;;;;11.88;9.27;;;;;;;;;;5114029;28;20377;-65
2021/04/13 00:44:24;;;;;;;11.90;8.60;;;;;;;;;;5102774;28;20039;-65
2021/04/13 00:46:59;;;;;;;11.07;9.05;;;;;;;;;;5093741;28;20496;-65
2021/04/13 00:49:27;;;;;;;12.32;8.55;;;;;;;;;;5106785;28;20032;-67
2021/04/13 00:51:58;;;;;;;12.95;9.15;;;;;;;;;;5104236;28;20386;-64
2021/04/13 00:54:37;;;;;;;13.50;9.90;;;;;;;;;;5100763;28;20032;-66
2021/04/13 00:57:04;;;;;;;15.23;11.38;;;;;;;;;;5094596;28;20072;-69
2021/04/13 00:59:31;;;;;;;21.80;14.73;;;;;;;;;;5112094;28;20111;-65
2021/04/13 01:02:02;;;;;;;21.60;13.95;;;;;;;;;;5113548;28;20040;-65
2021/04/13 01:04:31;;;;;;;18.13;11.27;;;;;;;;;;5094323;28;20032;-64
2021/04/13 01:07:02;;;;;;;13.60;9.52;;;;;;;;;;5093269;28;20024;-66
2021/04/13 01:09:29;;;;;;;11.38;8.38;;;;;;;;;;5108189;28;20020;-65
2021/04/13 01:12:08;;;;;;;11.15;8.55;;;;;;;;;;5092864;28;20031;-66
2021/04/13 01:14:34;;;;;;;14.38;9.65;;;;;;;;;;5111443;28;20023;-65
2021/04/13 01:17:06;;;;;;;11.90;8.55;;;;;;;;;;5113443;28;20541;-64
2021/04/13 01:19:46;;;;;;;13.13;9.07;;;;;;;;;;5095182;28;20043;-65
2021/04/13 01:22:26;;;;;;;11.77;9.20;;;;;;;;;;5093060;28;20066;-66
2021/04/13 01:24:54;;;;;;;13.68;9.18;;;;;;;;;;5093953;28;20470;-66
2021/04/13 01:27:22;;;;;;;14.70;9.23;;;;;;;;;;5093325;28;20039;-64
2021/04/13 01:29:50;;;;;;;14.23;10.30;;;;;;;;;;5105750;28;20055;-65
2021/04/13 01:32:17;;;;;;;14.93;10.52;;;;;;;;;;5092796;28;20024;-65
2021/04/13 01:34:46;;;;;;;11.43;9.75;;;;;;;;;;5092818;28;20023;-66
2021/04/13 01:37:32;;;;;;;12.30;8.50;;;;;;;;;;5112305;28;20404;-65
2021/04/13 01:42:27;;;;;;;11.60;7.88;;;;;;;;;;5092505;28;20024;-65
2021/04/13 01:44:56;;;;;;;13.38;8.27;;;;;;;;;;5092732;28;20016;-65
2021/04/13 01:47:24;;;;;;;10.35;8.10;;;;;;;;;;5092593;28;20505;-65
2021/04/13 01:49:51;;;;;;;9.23;7.70;;;;;;;;;;5105588;28;20041;-65
2021/04/13 01:52:30;;;;;;;10.18;7.78;;;;;;;;;;5093237;28;20107;-67
2021/04/13 01:54:58;;;;;;;10.38;8.02;;;;;;;;;;5108420;28;20054;-64
2021/04/13 01:57:39;;;;;;;11.23;8.65;;;;;;;;;;5112796;28;20051;-66
2021/04/13 02:00:14;;;;;;;8.82;6.75;;;;;;;;;;5110591;28;20034;-65
2021/04/13 02:02:44;;;;;;;11.65;7.65;;;;;;;;;;5112296;28;20035;-66
2021/04/13 02:05:13;;;;;;;10.70;7.53;;;;;;;;;;5109046;28;20023;-65
2021/04/13 02:10:24;;;;;;;10.18;7.22;;;;;;;;;;5102927;28;20081;-69
2021/04/13 02:12:51;;;;;;;12.25;7.70;;;;;;;;;;5105998;28;20020;-64
2021/04/13 02:15:36;;;;;;;12.20;7.53;;;;;;;;;;5093107;28;20024;-65
2021/04/13 02:18:04;;;;;;;12.60;8.00;;;;;;;;;;5095047;28;20015;-64
2021/04/13 02:20:32;;;;;;;9.98;7.97;;;;;;;;;;5093744;28;20021;-66
2021/04/13 02:22:58;;;;;;;13.27;8.07;;;;;;;;;;5095399;28;20136;-65
2021/04/13 02:25:29;;;;;;;11.48;7.70;;;;;;;;;;5112304;28;20046;-66
2021/04/13 02:27:57;;;;;;;12.13;8.23;;;;;;;;;;5096384;28;20017;-65
2021/04/13 02:30:34;;;;;;;14.82;9.70;;;;;;;;;;5112748;28;20032;-65
2021/04/13 02:33:06;;;;;;;15.15;10.20;;;;;;;;;;5096354;28;20027;-65
2021/04/13 02:35:36;;;;;;;12.73;9.20;;;;;;;;;;5096314;28;20420;-66
2021/04/13 02:38:05;;;;;;;10.50;8.10;;;;;;;;;;5096159;28;20028;-65
2021/04/13 02:40:35;;;;;;;8.73;7.15;;;;;;;;;;5096049;28;20485;-64
2021/04/13 02:43:07;;;;;;;10.23;7.18;;;;;;;;;;5116434;28;20030;-65
2021/04/13 02:45:35;;;;;;;9.27;7.88;;;;;;;;;;5116479;28;20148;-66
2021/04/13 02:48:06;;;;;;;10.30;7.47;;;;;;;;;;5099875;28;20046;-65
2021/04/13 02:50:34;;;;;;;8.90;7.40;;;;;;;;;;5111560;28;20023;-65
2021/04/13 02:53:02;;;;;;;8.88;6.85;;;;;;;;;;5100114;28;20032;-66
2021/04/13 02:55:32;;;;;;;11.40;7.32;;;;;;;;;;5096759;28;20097;-64
2021/04/13 02:58:00;;;;;;;10.85;6.65;;;;;;;;;;5095849;28;20520;-65
2021/04/13 03:00:32;;;;;;;11.45;6.90;;;;;;;;;;5109181;28;20027;-65
2021/04/13 03:03:02;;;;;;;7.47;5.80;;;;;;;;;;5116149;28;20096;-65
2021/04/13 03:05:29;;;;;;;8.93;6.45;;;;;;;;;;5114593;28;20035;-65
2021/04/13 03:07:59;;;;;;;9.57;7.97;;;;;;;;;;5115268;28;20055;-65
2021/04/13 03:10:28;;;;;;;16.63;9.05;;;;;;;;;;5102017;28;20020;-65
2021/04/13 03:12:55;;;;;;;13.35;8.35;;;;;;;;;;5104933;28;20069;-65
2021/04/13 03:15:23;;;;;;;12.30;7.95;;;;;;;;;;5115886;28;20052;-65
2021/04/13 03:17:51;;;;;;;13.27;7.35;;;;;;;;;;5107218;28;20096;-65
2021/04/13 03:20:20;;;;;;;10.05;8.20;;;;;;;;;;5095859;28;20051;-66
2021/04/13 03:22:48;;;;;;;9.98;7.50;;;;;;;;;;5095378;28;20073;-67
2021/04/13 03:25:14;;;;;;;10.52;7.32;;;;;;;;;;5096374;28;20028;-64
2021/04/13 03:27:41;;;;;;;9.73;7.00;;;;;;;;;;5114775;28;20023;-62
2021/04/13 03:30:07;;;;;;;13.35;7.72;;;;;;;;;;5114951;28;20045;-65
2021/04/13 03:32:35;;;;;;;13.55;7.70;;;;;;;;;;5099147;28;20027;-66
2021/04/13 03:35:02;;;;;;;11.32;7.78;;;;;;;;;;5115169;28;20107;-66
2021/04/13 03:37:28;;;;;;;12.95;8.98;;;;;;;;;;5095816;28;20028;-65
2021/04/13 03:39:55;;;;;;;14.82;10.18;;;;;;;;;;5094950;28;20024;-67
2021/04/13 03:42:29;;;;;;;12.70;8.65;;;;;;;;;;5095419;28;20035;-65
2021/04/13 03:44:57;;;;;;;11.98;7.93;;;;;;;;;;5094875;28;20020;-66
2021/04/13 03:47:25;;;;;;;14.25;7.35;;;;;;;;;;5109754;28;20144;-65
2021/04/13 03:49:51;;;;;;;7.57;6.20;;;;;;;;;;5094857;28;20466;-66
2021/04/13 03:52:18;;;;;;;9.00;6.45;;;;;;;;;;5101318;28;20042;-65
2021/04/13 03:54:44;;;;;;;8.80;6.88;;;;;;;;;;5103205;28;20510;-65
2021/04/13 03:57:10;;;;;;;11.23;8.27;;;;;;;;;;5094740;28;20055;-64
2021/04/13 03:59:43;;;;;;;11.38;7.07;;;;;;;;;;5104050;28;20031;-64
2021/04/13 04:02:10;;;;;;;13.55;8.13;;;;;;;;;;5113089;28;20051;-65
2021/04/13 04:04:38;;;;;;;10.18;7.65;;;;;;;;;;5109400;28;20059;-65
2021/04/13 04:09:48;;;;;;;11.05;8.18;;;;;;;;;;5102576;28;20469;-65
2021/04/13 04:12:23;;;;;;;12.57;8.70;;;;;;;;;;5110632;28;20050;-66
2021/04/13 04:15:15;;;;;;;10.88;6.93;;;;;;;;;;5104208;28;20528;-66
2021/04/13 04:17:48;;;;;;;10.35;6.63;;;;;;;;;;5106507;28;20114;-66
2021/04/13 04:20:15;;;;;;;8.02;6.00;;;;;;;;;;5101121;28;20057;-64
2021/04/13 04:22:49;;;;;;;13.68;7.75;;;;;;;;;;5093931;28;20028;-65
2021/04/13 04:25:24;;;;;;;12.35;7.38;;;;;;;;;;5106474;28;20024;-65
2021/04/13 04:27:53;;;;;;;10.70;7.22;;;;;;;;;;5105872;28;20096;-64
2021/04/13 04:30:33;;;;;;;9.45;6.47;;;;;;;;;;5093956;28;20032;-66
2021/04/13 04:33:00;;;;;;;8.77;6.40;;;;;;;;;;5102581;28;20027;-65
2021/04/13 04:35:35;;;;;;;9.45;7.25;;;;;;;;;;5114364;28;20378;-65
2021/04/13 04:38:06;;;;;;;8.40;7.03;;;;;;;;;;5091477;28;20094;-65
2021/04/13 04:40:32;;;;;;;10.15;6.88;;;;;;;;;;5114036;28;20447;-64
2021/04/13 04:43:02;;;;;;;9.38;6.75;;;;;;;;;;5109480;28;20483;-65
2021/04/13 04:45:34;;;;;;;8.00;7.03;;;;;;;;;;5093414;28;20024;-65
2021/04/13 04:48:00;;;;;;;11.15;6.82;;;;;;;;;;5093706;28;20016;-64
2021/04/13 04:50:26;;;;;;;9.77;7.07;;;;;;;;;;5096132;28;20020;-65
2021/04/13 04:52:52;;;;;;;8.43;6.43;;;;;;;;;;5114267;28;20095;-64
2021/04/13 04:55:19;;;;;;;9.38;5.85;;;;;;;;;;5112667;28;20030;-65
2021/04/13 04:57:45;;;;;;;10.15;7.47;;;;;;;;;;5097284;28;20086;-66
2021/04/13 05:00:11;;;;;;;8.88;6.60;;;;;;;;;;5103104;28;20023;-65
2021/04/13 05:02:37;;;;;;;11.05;7.53;;;;;;;;;;5093209;28;20048;-65
2021/04/13 05:05:04;;;;;;;10.27;6.97;;;;;;;;;;5102556;28;20073;-65
2021/04/13 05:07:30;;;;;;;8.55;6.68;;;;;;;;;;5112893;28;20024;-65
2021/04/13 05:09:56;;;;;;;10.93;7.10;;;;;;;;;;5106164;28;20020;-65
2021/04/13 05:12:22;;;;;;;8.75;6.35;;;;;;;;;;5110012;28;20103;-66
2021/04/13 05:14:49;;;;;;;8.60;5.97;;;;;;;;;;5094390;28;20028;-65
2021/04/13 05:17:15;;;;;;;9.50;6.63;;;;;;;;;;5112572;28;20023;-64
2021/04/13 05:19:41;;;;;;;11.50;7.10;;;;;;;;;;5112691;28;20022;-62
2021/04/13 05:22:07;;;;;;;10.18;6.35;;;;;;;;;;5108880;28;20023;-64
2021/04/13 05:24:33;;;;;;;9.52;6.95;;;;;;;;;;5095801;28;20078;-64
2021/04/13 05:27:00;;;;;;;10.73;6.38;;;;;;;;;;5113351;28;20094;-65
2021/04/13 05:29:26;;;;;;;9.77;6.55;;;;;;;;;;5094246;28;20523;-65
2021/04/13 05:31:52;;;;;;;11.07;7.50;;;;;;;;;;5094350;28;20031;-66
2021/04/13 05:34:18;;;;;;;12.50;6.80;;;;;;;;;;5113179;28;20032;-63
2021/04/13 05:36:44;;;;;;;9.57;6.60;;;;;;;;;;5109564;28;20020;-64
2021/04/13 05:39:12;;;;;;;7.40;5.80;;;;;;;;;;5093478;28;20482;-65
2021/04/13 05:41:39;;;;;;;7.97;6.50;;;;;;;;;;5094824;28;20031;-63
2021/04/13 05:44:05;;;;;;;10.18;6.70;;;;;;;;;;5108613;28;20030;-65
2021/04/13 05:46:32;;;;;;;10.68;7.07;;;;;;;;;;5112271;28;20032;-65
2021/04/13 05:48:58;;;;;;;8.05;6.00;;;;;;;;;;5111716;28;20024;-63
2021/04/13 05:51:25;;;;;;;11.80;7.28;;;;;;;;;;5104727;28;20077;-61
2021/04/13 05:53:51;;;;;;;10.57;7.47;;;;;;;;;;5096169;28;20066;-63
2021/04/13 05:56:18;;;;;;;9.70;7.30;;;;;;;;;;5096327;28;20028;-63
2021/04/13 05:58:46;;;;;;;10.10;7.60;;;;;;;;;;5092603;28;20471;-65
2021/04/13 06:01:13;;;;;;;10.45;7.70;;;;;;;;;;5093030;28;20143;-64
2021/04/13 06:03:40;;;;;;;8.60;6.00;;;;;;;;;;5109045;28;20036;-66
2021/04/13 06:06:06;;;;;;;10.40;6.45;;;;;;;;;;5093689;28;20020;-65
2021/04/13 06:08:32;;;;;;;10.23;6.30;;;;;;;;;;5092687;28;20103;-65
2021/04/13 06:10:59;;;;;;;12.35;7.38;;;;;;;;;;5098902;28;20023;-64
2021/04/13 06:13:26;;;;;;;7.75;6.28;;;;;;;;;;5094250;28;20024;-65
2021/04/13 06:15:54;;;;;;;9.85;6.68;;;;;;;;;;5108402;28;20378;-64
2021/04/13 06:18:20;;;;;;;10.07;7.45;;;;;;;;;;5095914;28;20027;-65
2021/04/13 06:20:46;;;;;;;10.18;6.63;;;;;;;;;;5092392;28;20075;-64
2021/04/13 06:23:13;;;;;;;8.32;6.45;;;;;;;;;;5092684;28;20032;-67
2021/04/13 06:25:39;;;;;;;8.43;6.38;;;;;;;;;;5092488;28;20062;-65
2021/04/13 06:28:05;;;;;;;9.18;6.25;;;;;;;;;;5106453;28;20493;-66
2021/04/13 06:30:31;;;;;;;8.90;6.50;;;;;;;;;;5101269;28;20027;-65
2021/04/13 06:32:58;;;;;;;7.72;6.00;;;;;;;;;;5111116;28;20081;-64
2021/04/13 06:35:25;;;;;;;8.48;6.43;;;;;;;;;;5112042;28;20110;-65
2021/04/13 06:37:53;;;;;;;9.35;6.30;;;;;;;;;;5112408;28;20492;-65
2021/04/13 06:40:19;;;;;;;8.98;6.15;;;;;;;;;;5109687;28;20028;-65
2021/04/13 06:42:54;;;;;;;10.13;6.32;;;;;;;;;;5102630;28;20078;-65
2021/04/13 06:45:20;;;;;;;7.68;6.47;;;;;;;;;;5095554;28;20024;-66
2021/04/13 06:47:53;;;;;;;10.73;6.22;;;;;;;;;;5102421;28;20058;-65
2021/04/13 06:50:22;;;;;;;9.70;5.88;;;;;;;;;;5105077;28;20137;-66
2021/04/13 06:53:03;;;;;;;7.20;5.20;;;;;;;;;;5096710;28;20063;-65
2021/04/13 06:55:38;;;;;;;6.88;5.60;;;;;;;;;;5112673;28;20040;-66
2021/04/13 06:58:17;;;;;;;10.23;6.38;;;;;;;;;;5099179;28;20058;-65
2021/04/13 07:00:51;;;;;;;8.90;6.22;;;;;;;;;;5091559;28;20020;-65
2021/04/13 07:03:26;;;;;;;7.75;5.43;;;;;;;;;;5099889;28;20056;-65
2021/04/13 07:05:55;;;;;;;7.60;5.70;;;;;;;;;;5104204;28;20132;-65
2021/04/13 07:08:51;;;;;;;8.38;5.47;;;;;;;;;;5096649;28;20024;-70
2021/04/13 07:11:20;;;;;;;7.55;5.68;;;;;;;;;;5080867;28;20401;-64
2021/04/13 07:13:54;;;;;;;9.27;5.85;;;;;;;;;;5105065;28;20110;-64
2021/04/13 07:16:41;;;;;;;7.50;5.75;;;;;;;;;;5095111;28;20028;-64
2021/04/13 07:19:21;;;;;;;7.78;6.03;;;;;;;;;;5097748;28;20031;-65
2021/04/13 07:22:05;;;;;;;7.82;5.95;;;;;;;;;;5095223;28;20089;-65
2021/04/13 07:24:43;;;;;;;6.90;6.00;;;;;;;;;;5101689;28;20573;-66
2021/04/13 07:27:38;;;;;;;8.93;6.75;;;;;;;;;;5102060;28;20474;-66
2021/04/13 07:30:08;;;;;;;7.40;5.30;;;;;;;;;;5082748;28;20045;-65
2021/04/13 07:32:36;;;;;;;6.90;6.30;;;;;;;;;;5102865;28;20301;-64
2021/04/13 07:35:03;;;;;;;6.30;5.65;;;;;;;;;;5099641;28;20420;-66
2021/04/13 07:37:38;;;;;;;10.63;6.93;;;;;;;;;;5110544;28;20126;-65
2021/04/13 07:40:07;;;;;;;7.70;5.70;;;;;;;;;;5101679;28;20024;-65
2021/04/13 07:42:35;;;;;;;8.48;6.18;;;;;;;;;;5104872;28;20064;-65
2021/04/13 07:45:17;;;;;;;8.35;5.93;;;;;;;;;;5098368;28;20028;-65
2021/04/13 07:47:46;;;;;;;7.50;5.97;;;;;;;;;;5094376;28;20032;-65
2021/04/13 07:50:16;;;;;;;9.98;5.50;;;;;;;;;;5092082;28;20502;-65
2021/04/13 07:52:57;;;;;;;9.50;6.30;;;;;;;;;;5106159;28;20151;-65
2021/04/13 07:55:23;;;;;;;8.15;6.32;;;;;;;;;;5098906;28;20415;-64
2021/04/13 07:58:08;;;;;;;9.82;5.93;;;;;;;;;;5100324;28;20031;-64
2021/04/13 08:00:36;;;;;;;8.18;6.32;;;;;;;;;;5091184;28;20035;-64
2021/04/13 08:03:21;;;;;;;7.10;6.40;;;;;;;;;;5105532;28;20031;-65
2021/04/13 08:05:52;;;;;;;6.93;5.45;;;;;;;;;;5093016;28;20513;-64
2021/04/13 08:08:35;;;;;;;6.60;5.50;;;;;;;;;;5096536;28;20024;-66
2021/04/13 08:11:12;;;;;;;6.80;5.70;;;;;;;;;;5105632;28;20755;-65
2021/04/13 08:13:39;;;;;;;6.68;5.13;;;;;;;;;;5102036;28;20032;-66
2021/04/13 08:16:06;;;;;;;6.60;4.63;;;;;;;;;;5095219;28;20746;-65
2021/04/13 08:18:35;;;;;;;6.13;5.00;;;;;;;;;;5093583;28;20028;-65
2021/04/13 08:21:20;;;;;;;5.60;4.60;;;;;;;;;;5100374;28;20834;-66
2021/04/13 08:23:46;;;;;;;5.30;4.30;;;;;;;;;;5106299;28;20031;-66
2021/04/13 08:26:31;;;;;;;5.20;4.35;;;;;;;;;;5106775;28;20045;-65
2021/04/13 08:28:57;;;;;;;5.13;4.63;;;;;;;;;;5090372;28;20055;-66
2021/04/13 08:34:28;;;;;;;5.57;4.72;;;;;;;;;;5095143;28;20042;-63
2021/04/13 08:36:55;;;;;;;5.88;4.55;;;;;;;;;;5100125;28;20023;-65
2021/04/13 08:39:37;;;;;;;4.95;4.45;;;;;;;;;;5096729;28;20504;-64
2021/04/13 08:42:06;;;;;;;6.75;4.50;;;;;;;;;;5095049;28;20035;-65
2021/04/13 08:44:38;;;;;;;6.45;4.55;;;;;;;;;;5100419;28;20481;-63
2021/04/13 08:47:04;;;;;;;7.63;4.55;;;;;;;;;;5101403;28;20028;-66
2021/04/13 08:49:54;;;;;;;7.80;4.78;;;;;;;;;;5104253;28;20031;-66
2021/04/13 08:52:39;;;;;;;5.93;4.30;;;;;;;;;;5090201;28;20069;-65
2021/04/13 08:55:16;;;;;;;9.13;4.47;;;;;;;;;;5099138;28;20028;-65
2021/04/13 08:57:45;;;;;;;10.10;5.18;;;;;;;;;;5097261;28;20031;-66
2021/04/13 09:00:30;;;;;;;5.40;4.05;;;;;;;;;;5105237;28;20039;-65
2021/04/13 09:03:00;;;;;;;5.10;3.63;;;;;;;;;;5060995;28;20036;-64
2021/04/13 09:05:28;;;;;;;6.43;4.13;;;;;;;;;;5059271;28;20116;-66
2021/04/13 09:08:07;;;;;;;4.75;3.97;;;;;;;;;;5056229;28;20020;-66
2021/04/13 09:10:36;;;;;;;5.32;3.50;;;;;;;;;;5058164;28;20040;-69
2021/04/13 09:13:05;;;;;;;4.55;3.78;;;;;;;;;;5053459;28;20024;-64
2021/04/13 09:15:32;;;;;;;5.43;3.95;;;;;;;;;;5059394;28;20364;-66
2021/04/13 09:18:01;;;;;;;5.30;4.00;;;;;;;;;;5060630;28;20067;-66
2021/04/13 09:20:38;;;;;;;4.55;3.63;;;;;;;;;;5067291;28;20399;-65
2021/04/13 09:23:04;;;;;;;4.35;3.63;;;;;;;;;;5056091;28;21358;-65
2021/04/13 09:25:54;;;;;;;6.40;4.97;;;;;;;;;;5052953;28;20430;-65
2021/04/13 09:28:25;;;;;;;6.75;5.10;;;;;;;;;;5017762;28;20036;-65
2021/04/13 09:31:06;;;;;;;6.75;5.03;;;;;;;;;;5057303;28;20028;-66
2021/04/13 09:33:36;;;;;;;6.20;4.43;;;;;;;;;;5049630;28;20043;-65
2021/04/13 09:36:21;;;;;;;4.90;4.50;;;;;;;;;;5056235;28;20028;-66
2021/04/13 09:39:06;;;;;;;8.45;4.18;;;;;;;;;;5055186;28;20036;-65
2021/04/13 09:41:50;;;;;;;4.93;4.10;;;;;;;;;;5056836;28;20045;-65
2021/04/13 09:44:19;;;;;;;5.28;3.78;;;;;;;;;;5054990;28;20495;-65
2021/04/13 09:46:54;;;;;;;4.68;3.45;;;;;;;;;;5054841;28;20025;-66
2021/04/13 09:49:30;;;;;;;5.63;4.20;;;;;;;;;;5058269;28;20070;-64
2021/04/13 09:51:59;;;;;;;9.45;5.80;;;;;;;;;;5058199;28;20062;-65
2021/04/13 09:54:34;;;;;;;6.90;4.57;;;;;;;;;;5058332;28;20028;-65
2021/04/13 09:57:06;;;;;;;7.28;4.72;;;;;;;;;;5060046;28;20046;-65
2021/04/13 09:59:55;;;;;;;6.18;3.00;;;;;;;;;;5051277;28;20024;-65
2021/04/13 10:02:21;;;;;;;5.60;3.20;;;;;;;;;;5082510;28;20055;-66
2021/04/13 10:04:54;;;;;;;7.25;3.20;;;;;;;;;;5095585;28;20024;-67
2021/04/13 10:07:21;;;;;;;7.45;3.70;;;;;;;;;;5100017;28;20124;-65
2021/04/13 10:09:47;;;;;;;3.78;3.08;;;;;;;;;;5096715;28;20085;-66
2021/04/13 10:12:16;;;;;;;4.43;3.38;;;;;;;;;;5096703;28;20036;-67
2021/04/13 10:14:45;;;;;;;10.50;3.67;;;;;;;;;;5105429;28;20483;-66
2021/04/13 10:17:27;;;;;;;6.45;3.60;;;;;;;;;;5090521;28;20032;-65
2021/04/13 10:20:11;;;;;;;3.80;2.90;;;;;;;;;;5089027;28;20040;-65
2021/04/13 10:22:50;;;;;;;3.95;3.10;;;;;;;;;;5089083;28;20028;-67
2021/04/13 10:25:29;;;;;;;5.78;2.97;;;;;;;;;;5091793;28;20028;-66
2021/04/13 10:27:59;;;;;;;7.72;3.65;;;;;;;;;;5098584;28;20027;-66
2021/04/13 10:30:43;;;;;;;5.65;2.70;;;;;;;;;;5104260;28;20035;-69
2021/04/13 10:33:29;;;;;;;4.75;2.17;;;;;;;;;;5095487;28;20028;-70
2021/04/13 10:36:14;;;;;;;7.10;2.60;;;;;;;;;;5090724;28;20095;-65
2021/04/13 10:38:59;;;;;;;3.10;2.57;;;;;;;;;;5089808;28;20056;-67
2021/04/13 10:41:53;;;;;;;4.50;3.08;;;;;;;;;;5097377;28;20338;-67
2021/04/13 10:44:19;;;;;;;4.05;2.70;;;;;;;;;;5103577;28;20077;-65
2021/04/13 10:46:45;;;;;;;7.20;3.63;;;;;;;;;;5099211;28;20016;-67
2021/04/13 10:49:42;;;;;;;6.38;4.32;;;;;;;;;;5093595;28;20114;-66
2021/04/13 10:52:30;;;;;;;3.22;2.47;;;;;;;;;;5100320;28;20520;-65
2021/04/13 10:55:08;;;;;;;3.22;2.47;;;;;;;;;;5099109;28;20425;-66
2021/04/13 10:57:40;;;;;;;6.00;3.17;;;;;;;;;;5094650;28;20028;-65
2021/04/13 11:00:06;;;;;;;5.07;2.80;;;;;;;;;;5101650;28;20032;-65
2021/04/13 11:02:36;;;;;;;3.53;2.95;;;;;;;;;;5096233;28;20071;-63
2021/04/13 11:05:14;;;;;;;3.30;2.55;;;;;;;;;;5098955;28;20520;-63
2021/04/13 11:07:59;;;;;;;4.75;2.90;;;;;;;;;;5102973;28;20035;-67
2021/04/13 11:10:33;;;;;;;5.45;2.20;;;;;;;;;;5097419;28;20033;-66
2021/04/13 11:13:18;;;;;;;4.00;2.20;;;;;;;;;;5091229;28;20636;-66
2021/04/13 11:15:44;;;;;;;5.05;2.45;;;;;;;;;;5105080;28;20043;-65
2021/04/13 11:18:19;;;;;;;4.63;2.50;;;;;;;;;;5107960;28;20101;-65
2021/04/13 11:21:00;;;;;;;3.65;2.67;;;;;;;;;;5097591;28;20058;-66
2021/04/13 11:23:39;;;;;;;4.43;2.50;;;;;;;;;;5096010;28;20483;-65
2021/04/13 11:26:17;;;;;;;4.78;2.70;;;;;;;;;;5099593;28;20020;-66
2021/04/13 11:28:46;;;;;;;3.92;2.58;;;;;;;;;;5104106;28;20020;-64
2021/04/13 11:31:31;;;;;;;3.58;1.80;;;;;;;;;;5097848;28;20535;-66
2021/04/13 11:34:18;;;;;;;2.13;1.88;;;;;;;;;;5090773;28;20478;-65
2021/04/13 11:36:57;;;;;;;2.42;2.00;;;;;;;;;;5097197;28;20035;-65
2021/04/13 11:39:26;;;;;;;3.20;2.15;;;;;;;;;;5093712;28;20036;-66
2021/04/13 11:42:04;;;;;;;3.20;2.10;;;;;;;;;;5084231;28;20066;-66
2021/04/13 11:44:30;;;;;;;2.50;2.00;;;;;;;;;;5094028;28;20078;-65
2021/04/13 11:47:02;;;;;;;2.63;2.03;;;;;;;;;;5108417;28;20023;-66
2021/04/13 11:49:34;;;;;;;5.03;1.98;;;;;;;;;;5095534;28;20032;-65
2021/04/13 11:52:20;;;;;;;3.15;2.20;;;;;;;;;;5097252;28;20055;-65
2021/04/13 11:54:49;;;;;;;6.57;2.00;;;;;;;;;;5101121;28;20043;-66
2021/04/13 11:57:17;;;;;;;2.42;2.22;;;;;;;;;;5093189;28;20147;-66
2021/04/13 11:59:44;;;;;;;3.60;2.00;;;;;;;;;;5093245;28;20039;-66
2021/04/13 12:02:22;;;;;;;3.05;2.00;;;;;;;;;;5091539;28;20047;-66
2021/04/13 12:04:51;;;;;;;2.42;2.05;;;;;;;;;;5096772;28;20016;-66
2021/04/13 12:07:35;;;;;;;4.35;2.33;;;;;;;;;;5094745;28;20028;-64
2021/04/13 12:10:07;;;;;;;2.60;2.10;;;;;;;;;;5099273;28;20115;-65
2021/04/13 12:12:33;;;;;;;3.72;2.38;;;;;;;;;;5092664;28;20055;-66
2021/04/13 12:15:19;;;;;;;2.58;2.10;;;;;;;;;;5097065;28;20036;-65
2021/04/13 12:17:55;;;;;;;4.82;2.65;;;;;;;;;;5089627;28;20036;-66
2021/04/13 12:20:28;;;;;;;2.65;1.90;;;;;;;;;;5096844;28;20036;-66
2021/04/13 12:22:58;;;;;;;4.65;2.33;;;;;;;;;;5096907;28;20032;-67
2021/04/13 12:25:37;;;;;;;2.13;1.90;;;;;;;;;;5101421;28;20500;-65
2021/04/13 12:28:10;;;;;;;4.07;2.15;;;;;;;;;;5092622;28;20580;-66
2021/04/13 12:30:42;;;;;;;4.40;2.20;;;;;;;;;;5090030;28;20423;-67
2021/04/13 12:33:28;;;;;;;2.60;1.92;;;;;;;;;;5104561;28;20080;-66
2021/04/13 12:36:08;;;;;;;3.13;2.50;;;;;;;;;;5090817;28;20032;-65
2021/04/13 12:38:44;;;;;;;4.50;2.58;;;;;;;;;;5106858;28;20030;-65
2021/04/13 12:41:14;;;;;;;4.78;2.40;;;;;;;;;;5092143;28;20032;-65
2021/04/13 12:43:44;;;;;;;2.45;2.10;;;;;;;;;;5099411;28;20631;-66
2021/04/13 12:46:20;;;;;;;3.42;2.35;;;;;;;;;;5093321;28;20064;-63
2021/04/13 12:48:48;;;;;;;2.90;2.20;;;;;;;;;;5105197;28;20026;-65
2021/04/13 12:51:21;;;;;;;2.92;2.00;;;;;;;;;;5089274;28;20036;-66
2021/04/13 12:53:47;;;;;;;2.17;1.98;;;;;;;;;;5095428;28;20031;-65
2021/04/13 12:56:15;;;;;;;4.55;2.30;;;;;;;;;;5097582;28;20071;-65
2021/04/13 12:58:42;;;;;;;3.30;2.67;;;;;;;;;;5092283;28;20037;-65
2021/04/13 13:01:16;;;;;;;5.78;2.30;;;;;;;;;;5101144;28;20106;-66
2021/04/13 13:03:42;;;;;;;4.28;2.42;;;;;;;;;;5094760;28;20081;-65
2021/04/13 13:06:17;;;;;;;3.17;2.22;;;;;;;;;;5103522;28;20081;-65
2021/04/13 13:08:44;;;;;;;5.60;2.20;;;;;;;;;;5106119;28;20019;-66
2021/04/13 13:11:12;;;;;;;3.97;2.00;;;;;;;;;;5099878;28;20495;-65
2021/04/13 13:13:39;;;;;;;3.58;2.10;;;;;;;;;;5094608;28;20084;-66
2021/04/13 13:16:13;;;;;;;2.88;2.00;;;;;;;;;;5102774;28;20106;-66
2021/04/13 13:18:46;;;;;;;2.47;1.98;;;;;;;;;;5082729;28;20535;-65
2021/04/13 13:21:16;;;;;;;3.05;2.30;;;;;;;;;;5094247;28;20039;-66
2021/04/13 13:23:44;;;;;;;2.55;2.00;;;;;;;;;;5101586;28;20459;-66
2021/04/13 13:26:15;;;;;;;2.55;2.00;;;;;;;;;;5106204;28;20073;-64
2021/04/13 13:28:44;;;;;;;2.10;1.90;;;;;;;;;;5096926;28;20422;-65
2021/04/13 13:31:12;;;;;;;2.67;1.80;;;;;;;;;;5092824;28;20042;-62
2021/04/13 13:33:38;;;;;;;2.88;2.13;;;;;;;;;;5099599;28;20077;-66
2021/04/13 13:36:05;;;;;;;4.47;2.45;;;;;;;;;;5097551;28;20047;-65
2021/04/13 13:38:32;;;;;;;2.67;2.47;;;;;;;;;;5092108;28;20094;-66
2021/04/13 13:41:01;;;;;;;3.72;2.42;;;;;;;;;;5089674;28;20389;-65
2021/04/13 13:43:27;;;;;;;2.53;2.22;;;;;;;;;;5095170;28;20036;-66
2021/04/13 13:46:07;;;;;;;4.25;2.05;;;;;;;;;;5093921;28;20028;-66
2021/04/13 13:48:33;;;;;;;3.83;1.90;;;;;;;;;;5100475;28;20028;-66
2021/04/13 13:51:02;;;;;;;3.00;1.92;;;;;;;;;;5093167;28;20042;-66
2021/04/13 13:53:29;;;;;;;3.45;1.75;;;;;;;;;;5096563;28;20024;-65
2021/04/13 13:55:59;;;;;;;9.98;5.68;;;;;;;;;;5093781;28;20024;-66
2021/04/13 13:58:28;;;;;;;3.75;2.30;;;;;;;;;;5090316;28;20066;-67
2021/04/13 14:00:55;;;;;;;2.55;1.77;;;;;;;;;;5090584;28;20047;-65
2021/04/13 14:03:31;;;;;;;1.98;1.77;;;;;;;;;;5100197;28;20032;-66
2021/04/13 14:05:58;;;;;;;4.03;2.03;;;;;;;;;;5091982;28;20023;-66
2021/04/13 14:08:28;;;;;;;2.10;1.90;;;;;;;;;;5108189;28;20607;-66
2021/04/13 14:10:55;;;;;;;3.10;2.10;;;;;;;;;;5105082;28;20031;-65
2021/04/13 14:13:31;;;;;;;2.75;1.90;;;;;;;;;;5106344;28;20423;-66
2021/04/13 14:15:58;;;;;;;3.53;1.85;;;;;;;;;;5106894;28;20059;-66
2021/04/13 14:18:26;;;;;;;1.98;1.60;;;;;;;;;;5106411;28;20032;-66
2021/04/13 14:20:59;;;;;;;3.85;1.98;;;;;;;;;;5102167;28;20076;-65
2021/04/13 14:23:25;;;;;;;4.28;2.22;;;;;;;;;;5098956;28;20053;-66
2021/04/13 14:25:51;;;;;;;2.60;2.10;;;;;;;;;;5095966;28;20062;-66
2021/04/13 14:28:20;;;;;;;8.38;3.03;;;;;;;;;;5091928;28;20032;-66
2021/04/13 14:30:47;;;;;;;4.50;2.35;;;;;;;;;;5094727;28;20028;-67
2021/04/13 14:33:13;;;;;;;7.18;2.38;;;;;;;;;;5094249;28;20509;-64
2021/04/13 14:35:40;;;;;;;6.05;2.72;;;;;;;;;;5094205;28;20032;-65
2021/04/13 14:38:09;;;;;;;3.10;2.00;;;;;;;;;;5097848;28;20031;-65
2021/04/13 14:40:35;;;;;;;4.18;2.15;;;;;;;;;;5101010;28;20141;-67
2021/04/13 14:43:01;;;;;;;4.53;2.60;;;;;;;;;;5102282;28;20024;-67
2021/04/13 14:45:27;;;;;;;5.15;2.65;;;;;;;;;;5106344;28;20670;-66
2021/04/13 14:47:58;;;;;;;2.83;1.95;;;;;;;;;;5096958;28;20028;-66
2021/04/13 14:50:29;;;;;;;4.00;2.20;;;;;;;;;;5100235;28;20027;-64
2021/04/13 14:52:55;;;;;;;6.22;2.22;;;;;;;;;;5097764;28;20032;-65
2021/04/13 14:55:22;;;;;;;2.78;2.28;;;;;;;;;;5095294;28;20040;-65
2021/04/13 14:57:56;;;;;;;5.75;2.42;;;;;;;;;;5095677;28;20081;-65
2021/04/13 15:00:23;;;;;;;3.95;2.80;;;;;;;;;;5094053;28;20438;-66
2021/04/13 15:02:49;;;;;;;4.18;2.83;;;;;;;;;;5094643;28;20044;-66
2021/04/13 15:05:15;;;;;;;3.50;2.03;;;;;;;;;;5100154;28;20039;-65
2021/04/13 15:07:41;;;;;;;5.35;3.63;;;;;;;;;;5095744;28;20452;-66
2021/04/13 15:10:09;;;;;;;10.02;3.25;;;;;;;;;;5092278;28;20123;-66
2021/04/13 15:12:35;;;;;;;6.32;3.40;;;;;;;;;;5102061;28;20035;-66
2021/04/13 15:15:01;;;;;;;8.40;3.55;;;;;;;;;;5090622;28;20116;-65